^^
Meteo Knjazevac Station Historical Data
Daily Summary for January 10, 2022 Units:  English    Metric   Both
Daily Weekly Monthly Yearly Custom
  High: Low: Average:
Temperature: 80.4 °F 65.8 °F 70.2 °F
Dew Point: 70.2 °F 62.3 °F 65.4 °F
Humidity: 94% 69% 85%
Wind Speed: 3mph 0mph 1.1mph
Wind Gust: 9mph - -
Wind- - SSW
Pressure: 30.12 in 30.09 in -
Precipitation: 0.00 in    
Historical Graphs
 
 
Tabular Data for January 10, 2022
Time Temperature Dew Point Pressure Wind Wind Speed Wind Gust Humidity Rainfall Rate (Hourly) solar Conditions
00:00 68.7 °F 62.7 °F 30.09 in SW 2 mph 3 mph 81% 0.00 in 0 W/m2
00:05 68.5 °F 62.5 °F 30.09 in SW 2 mph 3 mph 81% 0.00 in 0 W/m2
00:10 68.4 °F 62.3 °F 30.09 in SW 1 mph 2 mph 81% 0.00 in 0 W/m2
00:15 68.4 °F 63 °F 30.09 in SW 1 mph 2 mph 83% 0.00 in 0 W/m2
00:20 68.2 °F 62.8 °F 30.09 in WSW 1 mph 2 mph 83% 0.00 in 0 W/m2
00:25 68.2 °F 62.8 °F 30.09 in Calm   2 mph 83% 0.00 in 0 W/m2
00:35 68.7 °F 63.3 °F 30.10 in SE 1 mph 3 mph 83% 0.00 in 0 W/m2
00:40 68.7 °F 63.3 °F 30.10 in Calm   3 mph 83% 0.00 in 0 W/m2
00:50 68.4 °F 63.3 °F 30.10 in Calm   2 mph 84% 0.00 in 0 W/m2
01:00 68.2 °F 63.2 °F 30.10 in WSW 1 mph 2 mph 84% 0.00 in 0 W/m2
01:05 68.2 °F 63.2 °F 30.10 in WSW 1 mph 3 mph 84% 0.00 in 0 W/m2
01:10 68 °F 63 °F 30.09 in West 1 mph 2 mph 84% 0.00 in 0 W/m2
01:15 68 °F 63 °F 30.09 in West 1 mph 2 mph 84% 0.00 in 0 W/m2
01:20 67.8 °F 62.8 °F 30.09 in WSW 2 mph 3 mph 84% 0.00 in 0 W/m2
01:25 67.8 °F 62.8 °F 30.09 in SW 2 mph 3 mph 84% 0.00 in 0 W/m2
01:30 67.6 °F 63 °F 30.09 in SW 1 mph 2 mph 85% 0.00 in 0 W/m2
01:35 67.6 °F 63 °F 30.09 in SW 2 mph 3 mph 85% 0.00 in 0 W/m2
01:40 67.5 °F 62.8 °F 30.09 in SW 1 mph 3 mph 85% 0.00 in 0 W/m2
01:50 67.5 °F 62.8 °F 30.09 in WSW 2 mph 4 mph 85% 0.00 in 0 W/m2
01:55 67.5 °F 62.8 °F 30.09 in WSW 2 mph 4 mph 85% 0.00 in 0 W/m2
02:05 67.3 °F 62.9 °F 30.09 in West 3 mph 6 mph 86% 0.00 in 0 W/m2
02:10 67.6 °F 63.3 °F 30.09 in WSW 2 mph 4 mph 86% 0.00 in 0 W/m2
02:15 67.6 °F 63 °F 30.09 in SW 2 mph 3 mph 85% 0.00 in 0 W/m2
02:20 67.6 °F 63.3 °F 30.09 in SW 3 mph 4 mph 86% 0.00 in 0 W/m2
02:25 67.6 °F 63.3 °F 30.09 in WSW 2 mph 4 mph 86% 0.00 in 0 W/m2
02:30 67.6 °F 64 °F 30.09 in WSW 2 mph 5 mph 88% 0.00 in 0 W/m2
02:35 67.8 °F 64.1 °F 30.09 in West 3 mph 6 mph 88% 0.00 in 0 W/m2
02:40 68 °F 64.6 °F 30.09 in WSW 2 mph 5 mph 89% 0.00 in 0 W/m2
02:45 68.2 °F 64.8 °F 30.09 in WSW 1 mph 3 mph 89% 0.00 in 0 W/m2
02:50 68.2 °F 64.5 °F 30.09 in Calm   2 mph 88% 0.00 in 0 W/m2
02:55 68.2 °F 64.5 °F 30.09 in Calm     88% 0.00 in 0 W/m2
03:00 68.2 °F 64.5 °F 30.09 in SW 1 mph 2 mph 88% 0.00 in 0 W/m2
03:05 68.2 °F 64.5 °F 30.09 in Calm   2 mph 88% 0.00 in 0 W/m2
03:10 68.4 °F 64 °F 30.09 in Calm   2 mph 86% 0.00 in 0 W/m2
03:15 68.4 °F 64 °F 30.09 in Calm   2 mph 86% 0.00 in 0 W/m2
03:20 68.2 °F 63.8 °F 30.09 in Calm   1 mph 86% 0.00 in 0 W/m2
03:25 68.2 °F 63.8 °F 30.09 in Calm     86% 0.00 in 0 W/m2
03:30 68.3 °F 64 °F 30.09 in Calm   2 mph 86% 0.00 in 0 W/m2
03:40 68.4 °F 63.7 °F 30.09 in South 1 mph 3 mph 85% 0.00 in 0 W/m2
03:50 68.2 °F 63.8 °F 30.09 in WSW 1 mph 2 mph 86% 0.00 in 0 W/m2
03:55 68 °F 63.7 °F 30.09 in SW 2 mph 4 mph 86% 0.00 in 0 W/m2
04:00 68 °F 64.3 °F 30.09 in SW 2 mph 5 mph 88% 0.00 in 0 W/m2
04:05 67.8 °F 64.5 °F 30.09 in WSW 3 mph 5 mph 89% 0.00 in 0 W/m2
04:10 68 °F 64.6 °F 30.09 in WSW 3 mph 5 mph 89% 0.00 in 0 W/m2
04:20 68 °F 65 °F 30.09 in SW 1 mph 3 mph 90% 0.00 in 0 W/m2
04:25 68 °F 65 °F 30.10 in Calm   2 mph 90% 0.00 in 0 W/m2
04:30 68 °F 65 °F 30.10 in Calm   1 mph 90% 0.00 in 0 W/m2
04:35 68 °F 65 °F 30.10 in SSW 1 mph 2 mph 90% 0.00 in 0 W/m2
04:40 68 °F 65 °F 30.10 in SSW 2 mph 3 mph 90% 0.00 in 0 W/m2
04:45 68 °F 65 °F 30.10 in Calm   2 mph 90% 0.00 in 0 W/m2
04:50 68 °F 65 °F 30.10 in Calm   1 mph 90% 0.00 in 0 W/m2
04:55 68 °F 64.9 °F 30.10 in NW 1 mph 2 mph 90% 0.00 in 0 W/m2
05:00 67.8 °F 64.8 °F 30.10 in Calm   2 mph 90% 0.00 in 0 W/m2
05:05 67.6 °F 64.6 °F 30.10 in SW 1 mph 2 mph 90% 0.00 in 0 W/m2
05:10 67.6 °F 64.6 °F 30.11 in WSW 1 mph 3 mph 90% 0.00 in 0 W/m2
05:15 67.5 °F 64.7 °F 30.11 in WSW 2 mph 5 mph 91% 0.00 in 0 W/m2
05:20 67.3 °F 65.2 °F 30.10 in WSW 1 mph 4 mph 93% 0.00 in 0 W/m2
05:30 66.9 °F 64.2 °F 30.10 in West 1 mph 2 mph 91% 0.00 in 2 W/m2
05:35 66.7 °F 64.7 °F 30.11 in WSW 2 mph 3 mph 93% 0.00 in 4 W/m2
05:40 66.7 °F 64.7 °F 30.11 in WSW 2 mph 3 mph 93% 0.00 in 6 W/m2
05:45 66.6 °F 64.5 °F 30.11 in Calm   3 mph 93% 0.00 in 8 W/m2
05:50 66.6 °F 64.5 °F 30.11 in Calm   1 mph 93% 0.00 in 10 W/m2
05:55 66.4 °F 64.6 °F 30.11 in SE 1 mph 3 mph 94% 0.00 in 13 W/m2
06:00 66.2 °F 64.4 °F 30.11 in ESE 2 mph 4 mph 94% 0.00 in 16 W/m2
06:05 66 °F 63.9 °F 30.11 in SSE 1 mph 2 mph 93% 0.00 in 20 W/m2
06:10 66 °F 64.2 °F 30.12 in Calm   1 mph 94% 0.00 in 24 W/m2
06:15 66 °F 64.2 °F 30.12 in WSW 1 mph 2 mph 94% 0.00 in 31 W/m2
06:20 65.8 °F 64.1 °F 30.12 in Calm   2 mph 94% 0.00 in 38 W/m2
06:25 66 °F 64.3 °F 30.12 in Calm   2 mph 94% 0.00 in 40 W/m2
06:30 66.2 °F 64.4 °F 30.12 in Calm   2 mph 94% 0.00 in 46 W/m2
06:35 66.4 °F 64.6 °F 30.12 in Calm     94% 0.00 in 47 W/m2
06:40 66.6 °F 64.8 °F 30.12 in Calm   1 mph 94% 0.00 in 49 W/m2
06:45 66.6 °F 64.8 °F 30.12 in Calm   2 mph 94% 0.00 in 49 W/m2
06:50 66.6 °F 64.8 °F 30.12 in Calm     94% 0.00 in 54 W/m2
06:55 66.7 °F 65 °F 30.12 in Calm   1 mph 94% 0.00 in 59 W/m2
07:00 66.9 °F 65.1 °F 30.12 in ENE 2 mph 3 mph 94% 0.00 in 64 W/m2
07:10 67.1 °F 65 °F 30.12 in East 1 mph 2 mph 93% 0.00 in 76 W/m2
07:15 67.3 °F 65.2 °F 30.12 in SE 1 mph 2 mph 93% 0.00 in 91 W/m2
07:20 67.6 °F 65.5 °F 30.12 in SE 1 mph 2 mph 93% 0.00 in 107 W/m2
07:25 67.8 °F 65.7 °F 30.12 in ENE 1 mph 3 mph 93% 0.00 in 118 W/m2
07:30 68 °F 65.9 °F 30.12 in ENE 1 mph 2 mph 93% 0.00 in 123 W/m2
07:35 68.2 °F 65.5 °F 30.12 in Calm   2 mph 91% 0.00 in 138 W/m2
07:40 68.5 °F 65.8 °F 30.12 in Calm   1 mph 91% 0.00 in 150 W/m2
07:45 68.7 °F 65.7 °F 30.12 in Calm   2 mph 90% 0.00 in 132 W/m2
07:50 68.9 °F 65.9 °F 30.12 in East 1 mph 2 mph 90% 0.00 in 147 W/m2
07:55 69.1 °F 65.7 °F 30.12 in South 1 mph 2 mph 89% 0.00 in 160 W/m2
08:00 69.4 °F 66.1 °F 30.12 in Calm   2 mph 89% 0.00 in 182 W/m2
08:05 69.6 °F 66.2 °F 30.12 in SE 1 mph 2 mph 89% 0.00 in 164 W/m2
08:10 69.8 °F 66.1 °F 30.12 in Calm   2 mph 88% 0.00 in 174 W/m2
08:15 70 °F 66.3 °F 30.12 in Calm   2 mph 88% 0.00 in 161 W/m2
08:20 70.3 °F 66.9 °F 30.12 in Calm   3 mph 89% 0.00 in 181 W/m2
08:25 70.7 °F 67 °F 30.12 in ENE 2 mph 3 mph 88% 0.00 in 199 W/m2
08:30 70.9 °F 66.5 °F 30.12 in NE 1 mph 4 mph 86% 0.00 in 229 W/m2
08:45 71.4 °F 66.7 °F 30.12 in South 1 mph 3 mph 85% 0.00 in 241 W/m2
08:50 71.6 °F 66.9 °F 30.12 in SW 1 mph 3 mph 85% 0.00 in 241 W/m2
08:55 71.8 °F 67 °F 30.12 in WSW 1 mph 3 mph 85% 0.00 in 247 W/m2
09:05 72.3 °F 67.2 °F 30.12 in SSW 2 mph 3 mph 84% 0.00 in 289 W/m2
09:10 72.7 °F 67.2 °F 30.12 in South 1 mph 4 mph 83% 0.00 in 295 W/m2
09:15 72.9 °F 67.4 °F 30.12 in Calm   3 mph 83% 0.00 in 301 W/m2
09:20 73 °F 67.6 °F 30.12 in NE 1 mph 3 mph 83% 0.00 in 319 W/m2
09:25 73.2 °F 67 °F 30.12 in ESE 2 mph 3 mph 81% 0.00 in 349 W/m2
09:30 73.6 °F 67 °F 30.12 in SSE 1 mph 2 mph 80% 0.00 in 333 W/m2
09:35 73.9 °F 66.6 °F 30.12 in East 2 mph 4 mph 78% 0.00 in 298 W/m2
09:40 74.5 °F 67.6 °F 30.12 in NE 1 mph 5 mph 79% 0.00 in 686 W/m2
09:45 75.6 °F 68.2 °F 30.12 in North 1 mph 5 mph 78% 0.00 in 698 W/m2
09:50 76.6 °F 68.1 °F 30.12 in WNW 1 mph 4 mph 75% 0.00 in 710 W/m2
09:55 76.5 °F 67.6 °F 30.12 in ENE 2 mph 5 mph 74% 0.00 in 722 W/m2
10:00 77.4 °F 68 °F 30.11 in SE 2 mph 5 mph 73% 0.00 in 733 W/m2
10:10 77.2 °F 67.9 °F 30.11 in SE 1 mph 7 mph 73% 0.00 in 586 W/m2
10:15 77.6 °F 68.6 °F 30.11 in WNW 3 mph 7 mph 74% 0.00 in 600 W/m2
10:20 78.3 °F 68.5 °F 30.11 in WNW 1 mph 5 mph 72% 0.00 in 557 W/m2
10:25 78.3 °F 68.5 °F 30.11 in SW 2 mph 5 mph 72% 0.00 in 510 W/m2
10:35 79.2 °F 68.5 °F 30.11 in WSW 2 mph 7 mph 70% 0.00 in 436 W/m2
10:40 79.3 °F 68.7 °F 30.11 in WSW 1 mph 5 mph 70% 0.00 in 360 W/m2
10:45 79.2 °F 69.4 °F 30.11 in Calm   5 mph 72% 0.00 in 362 W/m2
10:55 78.8 °F 67.7 °F 30.11 in WNW 1 mph 4 mph 69% 0.00 in 310 W/m2
11:05 78.6 °F 69.2 °F 30.11 in WNW 1 mph 6 mph 73% 0.00 in 216 W/m2
11:10 78.4 °F 69.1 °F 30.11 in WSW 2 mph 6 mph 73% 0.00 in 166 W/m2
11:15 78.1 °F 68.7 °F 30.11 in SW 3 mph 7 mph 73% 0.00 in 136 W/m2
11:20 77.9 °F 68.9 °F 30.10 in SW 2 mph 4 mph 74% 0.00 in 143 W/m2
11:25 77.9 °F 69 °F 30.10 in Calm   3 mph 74% 0.00 in 160 W/m2
11:30 78.1 °F 68.7 °F 30.11 in WSW 3 mph 5 mph 73% 0.00 in 166 W/m2
11:35 78.1 °F 69.1 °F 30.10 in WSW 2 mph 5 mph 74% 0.00 in 194 W/m2
11:40 78.1 °F 69.1 °F 30.10 in WSW 2 mph 5 mph 74% 0.00 in 293 W/m2
11:45 78.6 °F 69.7 °F 30.10 in SW 3 mph 6 mph 74% 0.00 in 587 W/m2
11:50 79.4 °F 70 °F 30.10 in SSW 3 mph 9 mph 73% 0.00 in 590 W/m2
11:55 80.1 °F 70.2 °F 30.10 in SW 3 mph 8 mph 72% 0.00 in 832 W/m2
12:00 80.4 °F 69.7 °F 30.10 in WSW 1 mph 8 mph 70% 0.00 in 813 W/m2
Knjazevac, Serbia
Compliments of Weather Underground - 2 mb